sensor_id;sensor_type;location;lat;lon;timestamp;P1;durP1;ratioP1;P2;durP2;ratioP2
75413;SDS011;64758;52.122;5.404;2023-08-24T00:01:27;2.07;;;1.50;;
75413;SDS011;64758;52.122;5.404;2023-08-24T00:03:54;2.55;;;2.10;;
75413;SDS011;64758;52.122;5.404;2023-08-24T00:06:20;2.90;;;1.92;;
75413;SDS011;64758;52.122;5.404;2023-08-24T00:08:47;5.13;;;2.22;;
75413;SDS011;64758;52.122;5.404;2023-08-24T00:11:13;3.15;;;2.30;;
75413;SDS011;64758;52.122;5.404;2023-08-24T00:13:42;3.50;;;2.30;;
75413;SDS011;64758;52.122;5.404;2023-08-24T00:16:15;9.00;;;2.22;;
75413;SDS011;64758;52.122;5.404;2023-08-24T00:18:43;2.53;;;2.00;;
75413;SDS011;64758;52.122;5.404;2023-08-24T00:21:09;4.15;;;1.83;;
75413;SDS011;64758;52.122;5.404;2023-08-24T00:23:36;2.78;;;1.92;;
75413;SDS011;64758;52.122;5.404;2023-08-24T00:26:02;5.87;;;2.27;;
75413;SDS011;64758;52.122;5.404;2023-08-24T00:28:29;6.40;;;2.10;;
75413;SDS011;64758;52.122;5.404;2023-08-24T00:30:56;2.65;;;1.80;;
75413;SDS011;64758;52.122;5.404;2023-08-24T00:33:22;3.10;;;2.13;;
75413;SDS011;64758;52.122;5.404;2023-08-24T00:35:49;8.18;;;2.17;;
75413;SDS011;64758;52.122;5.404;2023-08-24T00:38:16;2.20;;;1.90;;
75413;SDS011;64758;52.122;5.404;2023-08-24T00:40:42;2.53;;;1.80;;
75413;SDS011;64758;52.122;5.404;2023-08-24T00:43:10;4.38;;;2.28;;
75413;SDS011;64758;52.122;5.404;2023-08-24T00:45:36;2.90;;;2.08;;
75413;SDS011;64758;52.122;5.404;2023-08-24T00:48:03;2.42;;;1.83;;
75413;SDS011;64758;52.122;5.404;2023-08-24T00:50:30;3.43;;;2.10;;
75413;SDS011;64758;52.122;5.404;2023-08-24T00:52:57;3.15;;;2.30;;
75413;SDS011;64758;52.122;5.404;2023-08-24T00:55:24;4.35;;;2.63;;
75413;SDS011;64758;52.122;5.404;2023-08-24T00:57:51;2.65;;;2.17;;
75413;SDS011;64758;52.122;5.404;2023-08-24T01:00:18;6.65;;;3.00;;
75413;SDS011;64758;52.122;5.404;2023-08-24T01:02:45;6.37;;;2.80;;
75413;SDS011;64758;52.122;5.404;2023-08-24T01:05:11;4.70;;;2.60;;
75413;SDS011;64758;52.122;5.404;2023-08-24T01:07:39;4.43;;;2.40;;
75413;SDS011;64758;52.122;5.404;2023-08-24T01:10:06;4.53;;;2.65;;
75413;SDS011;64758;52.122;5.404;2023-08-24T01:12:41;4.35;;;2.70;;
75413;SDS011;64758;52.122;5.404;2023-08-24T01:18:06;4.32;;;2.58;;
75413;SDS011;64758;52.122;5.404;2023-08-24T01:20:37;3.35;;;2.22;;
75413;SDS011;64758;52.122;5.404;2023-08-24T01:25:53;3.90;;;2.05;;
75413;SDS011;64758;52.122;5.404;2023-08-24T01:28:37;2.37;;;1.70;;
75413;SDS011;64758;52.122;5.404;2023-08-24T01:31:04;4.15;;;1.92;;
75413;SDS011;64758;52.122;5.404;2023-08-24T01:33:32;5.00;;;1.83;;
75413;SDS011;64758;52.122;5.404;2023-08-24T01:35:58;2.42;;;1.95;;
75413;SDS011;64758;52.122;5.404;2023-08-24T01:38:25;3.75;;;2.35;;
75413;SDS011;64758;52.122;5.404;2023-08-24T01:40:54;3.40;;;2.10;;
75413;SDS011;64758;52.122;5.404;2023-08-24T01:43:27;3.65;;;2.70;;
75413;SDS011;64758;52.122;5.404;2023-08-24T01:46:09;3.60;;;2.00;;
75413;SDS011;64758;52.122;5.404;2023-08-24T01:48:39;4.82;;;2.10;;
75413;SDS011;64758;52.122;5.404;2023-08-24T01:51:06;4.30;;;2.08;;
75413;SDS011;64758;52.122;5.404;2023-08-24T01:53:34;3.40;;;2.30;;
75413;SDS011;64758;52.122;5.404;2023-08-24T01:56:01;4.45;;;2.55;;
75413;SDS011;64758;52.122;5.404;2023-08-24T01:58:28;4.25;;;2.70;;
75413;SDS011;64758;52.122;5.404;2023-08-24T02:00:54;3.22;;;2.40;;
75413;SDS011;64758;52.122;5.404;2023-08-24T02:03:21;4.15;;;2.65;;
75413;SDS011;64758;52.122;5.404;2023-08-24T02:05:47;4.63;;;2.90;;
75413;SDS011;64758;52.122;5.404;2023-08-24T02:08:14;3.08;;;2.25;;
75413;SDS011;64758;52.122;5.404;2023-08-24T02:10:40;4.82;;;2.40;;
75413;SDS011;64758;52.122;5.404;2023-08-24T02:13:07;3.30;;;2.67;;
75413;SDS011;64758;52.122;5.404;2023-08-24T02:15:33;4.30;;;2.67;;
75413;SDS011;64758;52.122;5.404;2023-08-24T02:18:00;4.70;;;2.50;;
75413;SDS011;64758;52.122;5.404;2023-08-24T02:20:27;4.70;;;2.53;;
75413;SDS011;64758;52.122;5.404;2023-08-24T02:22:53;4.10;;;2.72;;
75413;SDS011;64758;52.122;5.404;2023-08-24T02:25:20;5.03;;;3.10;;
75413;SDS011;64758;52.122;5.404;2023-08-24T02:27:46;3.63;;;2.88;;
75413;SDS011;64758;52.122;5.404;2023-08-24T02:30:14;8.00;;;3.43;;
75413;SDS011;64758;52.122;5.404;2023-08-24T02:32:41;3.97;;;3.10;;
75413;SDS011;64758;52.122;5.404;2023-08-24T02:35:08;3.45;;;3.13;;
75413;SDS011;64758;52.122;5.404;2023-08-24T02:37:34;6.75;;;3.00;;
75413;SDS011;64758;52.122;5.404;2023-08-24T02:40:01;4.32;;;2.65;;
75413;SDS011;64758;52.122;5.404;2023-08-24T02:42:29;4.40;;;3.30;;
75413;SDS011;64758;52.122;5.404;2023-08-24T02:44:56;6.40;;;3.80;;
75413;SDS011;64758;52.122;5.404;2023-08-24T02:47:23;4.03;;;3.55;;
75413;SDS011;64758;52.122;5.404;2023-08-24T02:49:50;7.28;;;5.22;;
75413;SDS011;64758;52.122;5.404;2023-08-24T02:52:16;7.97;;;5.90;;
75413;SDS011;64758;52.122;5.404;2023-08-24T02:54:43;8.63;;;5.97;;
75413;SDS011;64758;52.122;5.404;2023-08-24T02:57:10;12.30;;;6.65;;
75413;SDS011;64758;52.122;5.404;2023-08-24T02:59:36;10.75;;;5.50;;
75413;SDS011;64758;52.122;5.404;2023-08-24T03:02:03;7.60;;;5.70;;
75413;SDS011;64758;52.122;5.404;2023-08-24T03:04:30;9.20;;;5.45;;
75413;SDS011;64758;52.122;5.404;2023-08-24T03:06:57;6.83;;;5.73;;
75413;SDS011;64758;52.122;5.404;2023-08-24T03:09:23;11.02;;;5.78;;
75413;SDS011;64758;52.122;5.404;2023-08-24T03:11:50;6.60;;;5.22;;
75413;SDS011;64758;52.122;5.404;2023-08-24T03:14:16;7.82;;;5.28;;
75413;SDS011;64758;52.122;5.404;2023-08-24T03:16:45;8.48;;;5.70;;
75413;SDS011;64758;52.122;5.404;2023-08-24T03:19:11;9.33;;;5.83;;
75413;SDS011;64758;52.122;5.404;2023-08-24T03:21:40;10.27;;;5.85;;
75413;SDS011;64758;52.122;5.404;2023-08-24T03:24:07;7.88;;;6.10;;
75413;SDS011;64758;52.122;5.404;2023-08-24T03:26:33;8.82;;;6.07;;
75413;SDS011;64758;52.122;5.404;2023-08-24T03:29:00;8.00;;;6.45;;
75413;SDS011;64758;52.122;5.404;2023-08-24T03:31:26;11.43;;;6.37;;
75413;SDS011;64758;52.122;5.404;2023-08-24T03:33:53;8.45;;;5.90;;
75413;SDS011;64758;52.122;5.404;2023-08-24T03:36:19;7.60;;;5.43;;
75413;SDS011;64758;52.122;5.404;2023-08-24T03:38:46;8.85;;;5.53;;
75413;SDS011;64758;52.122;5.404;2023-08-24T03:41:12;9.57;;;5.55;;
75413;SDS011;64758;52.122;5.404;2023-08-24T03:43:39;7.07;;;4.80;;
75413;SDS011;64758;52.122;5.404;2023-08-24T03:46:05;10.27;;;6.22;;
75413;SDS011;64758;52.122;5.404;2023-08-24T03:48:32;7.00;;;5.50;;
75413;SDS011;64758;52.122;5.404;2023-08-24T03:50:59;6.45;;;5.22;;
75413;SDS011;64758;52.122;5.404;2023-08-24T03:53:26;11.73;;;5.28;;
75413;SDS011;64758;52.122;5.404;2023-08-24T03:55:53;6.43;;;5.43;;
75413;SDS011;64758;52.122;5.404;2023-08-24T03:58:20;7.30;;;4.90;;
75413;SDS011;64758;52.122;5.404;2023-08-24T04:00:47;7.95;;;6.28;;
75413;SDS011;64758;52.122;5.404;2023-08-24T04:03:13;6.57;;;5.65;;
75413;SDS011;64758;52.122;5.404;2023-08-24T04:05:41;8.77;;;5.80;;
75413;SDS011;64758;52.122;5.404;2023-08-24T04:08:08;9.33;;;5.90;;
75413;SDS011;64758;52.122;5.404;2023-08-24T04:10:35;9.63;;;6.10;;
75413;SDS011;64758;52.122;5.404;2023-08-24T04:13:01;6.32;;;5.10;;
75413;SDS011;64758;52.122;5.404;2023-08-24T04:15:28;5.88;;;5.13;;
75413;SDS011;64758;52.122;5.404;2023-08-24T04:17:55;10.15;;;6.63;;
75413;SDS011;64758;52.122;5.404;2023-08-24T04:20:23;6.70;;;5.60;;
75413;SDS011;64758;52.122;5.404;2023-08-24T04:22:49;7.25;;;5.45;;
75413;SDS011;64758;52.122;5.404;2023-08-24T04:25:16;6.47;;;5.88;;
75413;SDS011;64758;52.122;5.404;2023-08-24T04:27:42;11.13;;;6.40;;
75413;SDS011;64758;52.122;5.404;2023-08-24T04:30:09;9.10;;;5.97;;
75413;SDS011;64758;52.122;5.404;2023-08-24T04:32:38;11.53;;;6.40;;
75413;SDS011;64758;52.122;5.404;2023-08-24T04:35:05;7.13;;;5.90;;
75413;SDS011;64758;52.122;5.404;2023-08-24T04:37:32;9.23;;;5.63;;
75413;SDS011;64758;52.122;5.404;2023-08-24T04:39:58;7.65;;;5.82;;
75413;SDS011;64758;52.122;5.404;2023-08-24T04:42:25;9.13;;;6.53;;
75413;SDS011;64758;52.122;5.404;2023-08-24T04:44:51;8.07;;;6.03;;
75413;SDS011;64758;52.122;5.404;2023-08-24T04:47:18;10.25;;;5.25;;
75413;SDS011;64758;52.122;5.404;2023-08-24T04:49:45;9.18;;;6.40;;
75413;SDS011;64758;52.122;5.404;2023-08-24T04:52:11;9.88;;;6.13;;
75413;SDS011;64758;52.122;5.404;2023-08-24T04:54:37;7.43;;;5.28;;
75413;SDS011;64758;52.122;5.404;2023-08-24T04:57:05;7.57;;;5.93;;
75413;SDS011;64758;52.122;5.404;2023-08-24T04:59:32;6.45;;;5.43;;
75413;SDS011;64758;52.122;5.404;2023-08-24T05:01:58;6.22;;;5.30;;
75413;SDS011;64758;52.122;5.404;2023-08-24T05:04:25;9.10;;;5.68;;
75413;SDS011;64758;52.122;5.404;2023-08-24T05:06:51;8.63;;;5.80;;
75413;SDS011;64758;52.122;5.404;2023-08-24T05:09:18;9.23;;;5.60;;
75413;SDS011;64758;52.122;5.404;2023-08-24T05:11:44;8.77;;;5.95;;
75413;SDS011;64758;52.122;5.404;2023-08-24T05:14:11;8.18;;;5.47;;
75413;SDS011;64758;52.122;5.404;2023-08-24T05:16:40;9.82;;;6.10;;
75413;SDS011;64758;52.122;5.404;2023-08-24T05:19:06;7.88;;;6.63;;
75413;SDS011;64758;52.122;5.404;2023-08-24T05:21:33;8.67;;;6.37;;
75413;SDS011;64758;52.122;5.404;2023-08-24T05:23:59;7.22;;;5.40;;
75413;SDS011;64758;52.122;5.404;2023-08-24T05:26:26;9.30;;;6.07;;
75413;SDS011;64758;52.122;5.404;2023-08-24T05:28:53;7.40;;;5.68;;
75413;SDS011;64758;52.122;5.404;2023-08-24T05:31:19;6.53;;;5.68;;
75413;SDS011;64758;52.122;5.404;2023-08-24T05:33:47;7.63;;;5.83;;
75413;SDS011;64758;52.122;5.404;2023-08-24T05:36:14;9.75;;;6.28;;
75413;SDS011;64758;52.122;5.404;2023-08-24T05:38:40;9.93;;;6.80;;
75413;SDS011;64758;52.122;5.404;2023-08-24T05:41:16;8.40;;;6.03;;
75413;SDS011;64758;52.122;5.404;2023-08-24T05:43:42;11.73;;;6.90;;
75413;SDS011;64758;52.122;5.404;2023-08-24T05:46:09;9.27;;;6.40;;
75413;SDS011;64758;52.122;5.404;2023-08-24T05:48:35;9.07;;;6.60;;
75413;SDS011;64758;52.122;5.404;2023-08-24T05:51:02;8.38;;;6.43;;
75413;SDS011;64758;52.122;5.404;2023-08-24T05:53:29;6.95;;;6.25;;
75413;SDS011;64758;52.122;5.404;2023-08-24T05:55:58;9.32;;;6.85;;
75413;SDS011;64758;52.122;5.404;2023-08-24T05:58:25;13.30;;;7.10;;
75413;SDS011;64758;52.122;5.404;2023-08-24T06:00:58;8.65;;;6.25;;
75413;SDS011;64758;52.122;5.404;2023-08-24T06:03:25;8.88;;;6.13;;
75413;SDS011;64758;52.122;5.404;2023-08-24T06:05:52;10.35;;;6.43;;
75413;SDS011;64758;52.122;5.404;2023-08-24T06:08:19;10.45;;;7.15;;
75413;SDS011;64758;52.122;5.404;2023-08-24T06:10:45;11.20;;;7.03;;
75413;SDS011;64758;52.122;5.404;2023-08-24T06:13:12;11.38;;;7.35;;
75413;SDS011;64758;52.122;5.404;2023-08-24T06:15:38;10.45;;;7.28;;
75413;SDS011;64758;52.122;5.404;2023-08-24T06:18:05;10.57;;;7.47;;
75413;SDS011;64758;52.122;5.404;2023-08-24T06:20:32;10.20;;;7.47;;
75413;SDS011;64758;52.122;5.404;2023-08-24T06:22:58;10.37;;;6.83;;
75413;SDS011;64758;52.122;5.404;2023-08-24T06:25:25;11.55;;;7.22;;
75413;SDS011;64758;52.122;5.404;2023-08-24T06:27:51;10.73;;;7.53;;
75413;SDS011;64758;52.122;5.404;2023-08-24T06:30:18;10.00;;;6.60;;
75413;SDS011;64758;52.122;5.404;2023-08-24T06:32:45;12.90;;;7.28;;
75413;SDS011;64758;52.122;5.404;2023-08-24T06:35:12;14.67;;;8.33;;
75413;SDS011;64758;52.122;5.404;2023-08-24T06:37:41;11.63;;;8.02;;
75413;SDS011;64758;52.122;5.404;2023-08-24T06:40:09;11.38;;;7.40;;
75413;SDS011;64758;52.122;5.404;2023-08-24T06:42:36;9.25;;;7.68;;
75413;SDS011;64758;52.122;5.404;2023-08-24T06:45:03;10.80;;;7.90;;
75413;SDS011;64758;52.122;5.404;2023-08-24T06:47:30;11.30;;;7.53;;
75413;SDS011;64758;52.122;5.404;2023-08-24T06:49:57;12.85;;;7.68;;
75413;SDS011;64758;52.122;5.404;2023-08-24T06:52:23;11.88;;;7.95;;
75413;SDS011;64758;52.122;5.404;2023-08-24T06:54:50;10.73;;;8.30;;
75413;SDS011;64758;52.122;5.404;2023-08-24T06:57:20;11.55;;;7.85;;
75413;SDS011;64758;52.122;5.404;2023-08-24T06:59:46;10.10;;;8.50;;
75413;SDS011;64758;52.122;5.404;2023-08-24T07:02:13;11.40;;;8.52;;
75413;SDS011;64758;52.122;5.404;2023-08-24T07:04:40;11.85;;;8.40;;
75413;SDS011;64758;52.122;5.404;2023-08-24T07:07:06;9.93;;;8.65;;
75413;SDS011;64758;52.122;5.404;2023-08-24T07:09:33;12.10;;;8.75;;
75413;SDS011;64758;52.122;5.404;2023-08-24T07:12:04;11.47;;;8.80;;
75413;SDS011;64758;52.122;5.404;2023-08-24T07:14:33;14.93;;;9.35;;
75413;SDS011;64758;52.122;5.404;2023-08-24T07:16:59;15.15;;;9.32;;
75413;SDS011;64758;52.122;5.404;2023-08-24T07:19:26;14.10;;;8.98;;
75413;SDS011;64758;52.122;5.404;2023-08-24T07:21:53;15.43;;;9.43;;
75413;SDS011;64758;52.122;5.404;2023-08-24T07:24:19;12.30;;;9.53;;
75413;SDS011;64758;52.122;5.404;2023-08-24T07:27:00;12.07;;;10.15;;
75413;SDS011;64758;52.122;5.404;2023-08-24T07:29:26;14.40;;;9.55;;
75413;SDS011;64758;52.122;5.404;2023-08-24T07:31:53;14.05;;;9.88;;
75413;SDS011;64758;52.122;5.404;2023-08-24T07:34:19;12.90;;;9.70;;
75413;SDS011;64758;52.122;5.404;2023-08-24T07:36:48;12.80;;;9.33;;
75413;SDS011;64758;52.122;5.404;2023-08-24T07:39:15;11.80;;;9.63;;
75413;SDS011;64758;52.122;5.404;2023-08-24T07:41:41;13.65;;;9.60;;
75413;SDS011;64758;52.122;5.404;2023-08-24T07:44:08;14.48;;;10.32;;
75413;SDS011;64758;52.122;5.404;2023-08-24T07:46:35;12.38;;;10.00;;
75413;SDS011;64758;52.122;5.404;2023-08-24T07:49:01;16.63;;;10.37;;
75413;SDS011;64758;52.122;5.404;2023-08-24T07:51:28;11.38;;;10.18;;
75413;SDS011;64758;52.122;5.404;2023-08-24T07:53:54;14.13;;;10.48;;
75413;SDS011;64758;52.122;5.404;2023-08-24T07:56:21;11.02;;;9.88;;
75413;SDS011;64758;52.122;5.404;2023-08-24T07:58:49;13.52;;;10.27;;
75413;SDS011;64758;52.122;5.404;2023-08-24T08:01:15;11.07;;;9.90;;
75413;SDS011;64758;52.122;5.404;2023-08-24T08:03:42;13.55;;;10.13;;
75413;SDS011;64758;52.122;5.404;2023-08-24T08:06:08;14.25;;;10.13;;
75413;SDS011;64758;52.122;5.404;2023-08-24T08:08:35;11.52;;;9.90;;
75413;SDS011;64758;52.122;5.404;2023-08-24T08:11:02;13.35;;;9.63;;
75413;SDS011;64758;52.122;5.404;2023-08-24T08:13:29;13.03;;;9.40;;
75413;SDS011;64758;52.122;5.404;2023-08-24T08:16:04;12.82;;;10.15;;
75413;SDS011;64758;52.122;5.404;2023-08-24T08:18:32;12.40;;;9.88;;
75413;SDS011;64758;52.122;5.404;2023-08-24T08:20:59;11.73;;;9.63;;
75413;SDS011;64758;52.122;5.404;2023-08-24T08:23:26;11.60;;;9.55;;
75413;SDS011;64758;52.122;5.404;2023-08-24T08:25:53;12.73;;;9.17;;
75413;SDS011;64758;52.122;5.404;2023-08-24T08:28:19;15.27;;;9.43;;
75413;SDS011;64758;52.122;5.404;2023-08-24T08:30:47;13.20;;;9.60;;
75413;SDS011;64758;52.122;5.404;2023-08-24T08:33:15;12.90;;;8.80;;
75413;SDS011;64758;52.122;5.404;2023-08-24T08:35:42;11.23;;;9.50;;
75413;SDS011;64758;52.122;5.404;2023-08-24T08:38:09;12.17;;;10.63;;
75413;SDS011;64758;52.122;5.404;2023-08-24T08:40:36;11.73;;;10.15;;
75413;SDS011;64758;52.122;5.404;2023-08-24T08:43:03;12.55;;;10.05;;
75413;SDS011;64758;52.122;5.404;2023-08-24T08:45:31;12.00;;;9.60;;
75413;SDS011;64758;52.122;5.404;2023-08-24T08:47:59;13.38;;;10.35;;
75413;SDS011;64758;52.122;5.404;2023-08-24T08:50:27;10.93;;;9.57;;
75413;SDS011;64758;52.122;5.404;2023-08-24T08:52:57;11.48;;;9.07;;
75413;SDS011;64758;52.122;5.404;2023-08-24T08:55:25;9.80;;;8.80;;
75413;SDS011;64758;52.122;5.404;2023-08-24T08:57:53;12.90;;;8.82;;
75413;SDS011;64758;52.122;5.404;2023-08-24T09:00:24;12.00;;;8.98;;
75413;SDS011;64758;52.122;5.404;2023-08-24T09:02:51;14.10;;;8.97;;
75413;SDS011;64758;52.122;5.404;2023-08-24T09:05:19;13.70;;;9.60;;
75413;SDS011;64758;52.122;5.404;2023-08-24T09:07:46;10.77;;;7.93;;
75413;SDS011;64758;52.122;5.404;2023-08-24T09:10:14;11.90;;;8.75;;
75413;SDS011;64758;52.122;5.404;2023-08-24T09:12:40;13.65;;;8.38;;
75413;SDS011;64758;52.122;5.404;2023-08-24T09:15:07;10.03;;;8.60;;
75413;SDS011;64758;52.122;5.404;2023-08-24T09:17:34;13.38;;;8.73;;
75413;SDS011;64758;52.122;5.404;2023-08-24T09:20:06;11.20;;;9.05;;
75413;SDS011;64758;52.122;5.404;2023-08-24T09:22:36;10.43;;;8.63;;
75413;SDS011;64758;52.122;5.404;2023-08-24T09:25:10;12.77;;;9.20;;
75413;SDS011;64758;52.122;5.404;2023-08-24T09:27:37;15.10;;;8.27;;
75413;SDS011;64758;52.122;5.404;2023-08-24T09:30:04;10.05;;;7.90;;
75413;SDS011;64758;52.122;5.404;2023-08-24T09:32:34;8.90;;;7.82;;
75413;SDS011;64758;52.122;5.404;2023-08-24T09:35:04;10.15;;;7.35;;
75413;SDS011;64758;52.122;5.404;2023-08-24T09:37:35;11.90;;;8.13;;
75413;SDS011;64758;52.122;5.404;2023-08-24T09:40:03;11.90;;;7.87;;
75413;SDS011;64758;52.122;5.404;2023-08-24T09:42:38;10.95;;;8.20;;
75413;SDS011;64758;52.122;5.404;2023-08-24T09:45:12;10.68;;;7.88;;
75413;SDS011;64758;52.122;5.404;2023-08-24T09:47:44;9.88;;;7.85;;
75413;SDS011;64758;52.122;5.404;2023-08-24T09:50:20;9.75;;;7.40;;
75413;SDS011;64758;52.122;5.404;2023-08-24T09:52:48;9.50;;;7.07;;
75413;SDS011;64758;52.122;5.404;2023-08-24T09:55:20;11.65;;;7.85;;
75413;SDS011;64758;52.122;5.404;2023-08-24T09:57:50;10.07;;;7.43;;
75413;SDS011;64758;52.122;5.404;2023-08-24T10:00:21;11.50;;;6.90;;
75413;SDS011;64758;52.122;5.404;2023-08-24T10:02:51;11.57;;;6.60;;
75413;SDS011;64758;52.122;5.404;2023-08-24T10:05:23;9.00;;;6.83;;
75413;SDS011;64758;52.122;5.404;2023-08-24T10:08:04;10.63;;;7.30;;
75413;SDS011;64758;52.122;5.404;2023-08-24T10:10:34;10.70;;;7.50;;
75413;SDS011;64758;52.122;5.404;2023-08-24T10:13:06;11.80;;;7.60;;
75413;SDS011;64758;52.122;5.404;2023-08-24T10:15:37;10.77;;;7.78;;
75413;SDS011;64758;52.122;5.404;2023-08-24T10:18:13;10.67;;;7.77;;
75413;SDS011;64758;52.122;5.404;2023-08-24T10:20:41;10.13;;;7.70;;
75413;SDS011;64758;52.122;5.404;2023-08-24T10:23:10;13.63;;;8.70;;
75413;SDS011;64758;52.122;5.404;2023-08-24T10:25:38;10.65;;;7.93;;
75413;SDS011;64758;52.122;5.404;2023-08-24T10:28:08;10.73;;;8.43;;
75413;SDS011;64758;52.122;5.404;2023-08-24T10:30:38;13.27;;;7.73;;
75413;SDS011;64758;52.122;5.404;2023-08-24T10:36:09;21.67;;;10.25;;
75413;SDS011;64758;52.122;5.404;2023-08-24T10:38:39;19.27;;;10.60;;
75413;SDS011;64758;52.122;5.404;2023-08-24T10:41:10;26.10;;;10.18;;
75413;SDS011;64758;52.122;5.404;2023-08-24T10:43:41;13.80;;;9.90;;
75413;SDS011;64758;52.122;5.404;2023-08-24T10:46:15;18.88;;;10.25;;
75413;SDS011;64758;52.122;5.404;2023-08-24T10:53:51;15.55;;;11.32;;
75413;SDS011;64758;52.122;5.404;2023-08-24T10:56:19;14.77;;;12.10;;
75413;SDS011;64758;52.122;5.404;2023-08-24T10:58:47;14.70;;;11.93;;
75413;SDS011;64758;52.122;5.404;2023-08-24T11:01:41;18.85;;;12.05;;
75413;SDS011;64758;52.122;5.404;2023-08-24T11:04:30;14.30;;;11.98;;
75413;SDS011;64758;52.122;5.404;2023-08-24T11:06:57;18.08;;;13.15;;
75413;SDS011;64758;52.122;5.404;2023-08-24T11:09:44;15.23;;;12.80;;
75413;SDS011;64758;52.122;5.404;2023-08-24T11:12:12;16.48;;;12.25;;
75413;SDS011;64758;52.122;5.404;2023-08-24T11:14:49;15.48;;;11.70;;
75413;SDS011;64758;52.122;5.404;2023-08-24T11:17:29;14.57;;;11.55;;
75413;SDS011;64758;52.122;5.404;2023-08-24T11:19:58;13.65;;;11.13;;
75413;SDS011;64758;52.122;5.404;2023-08-24T11:22:24;12.47;;;10.90;;
75413;SDS011;64758;52.122;5.404;2023-08-24T11:24:51;12.63;;;11.23;;
75413;SDS011;64758;52.122;5.404;2023-08-24T11:27:20;14.13;;;11.40;;
75413;SDS011;64758;52.122;5.404;2023-08-24T11:29:47;20.98;;;11.60;;
75413;SDS011;64758;52.122;5.404;2023-08-24T11:32:23;12.43;;;10.77;;
75413;SDS011;64758;52.122;5.404;2023-08-24T11:34:50;16.40;;;11.17;;
75413;SDS011;64758;52.122;5.404;2023-08-24T11:37:19;15.13;;;11.15;;
75413;SDS011;64758;52.122;5.404;2023-08-24T11:39:46;15.82;;;11.18;;
75413;SDS011;64758;52.122;5.404;2023-08-24T11:42:13;14.98;;;11.77;;
75413;SDS011;64758;52.122;5.404;2023-08-24T11:44:49;20.73;;;12.13;;
75413;SDS011;64758;52.122;5.404;2023-08-24T11:47:16;20.97;;;12.50;;
75413;SDS011;64758;52.122;5.404;2023-08-24T11:49:45;19.83;;;12.27;;
75413;SDS011;64758;52.122;5.404;2023-08-24T11:52:12;16.70;;;12.55;;
75413;SDS011;64758;52.122;5.404;2023-08-24T11:54:42;17.98;;;12.35;;
75413;SDS011;64758;52.122;5.404;2023-08-24T11:57:09;17.10;;;12.55;;
75413;SDS011;64758;52.122;5.404;2023-08-24T11:59:36;16.03;;;11.73;;
75413;SDS011;64758;52.122;5.404;2023-08-24T12:02:04;18.45;;;13.30;;
75413;SDS011;64758;52.122;5.404;2023-08-24T12:04:39;14.50;;;11.88;;
75413;SDS011;64758;52.122;5.404;2023-08-24T12:07:10;13.15;;;11.77;;
75413;SDS011;64758;52.122;5.404;2023-08-24T12:09:40;16.65;;;12.23;;
75413;SDS011;64758;52.122;5.404;2023-08-24T12:12:14;14.60;;;12.00;;
75413;SDS011;64758;52.122;5.404;2023-08-24T12:14:42;14.65;;;12.07;;
75413;SDS011;64758;52.122;5.404;2023-08-24T12:17:10;14.10;;;11.70;;
75413;SDS011;64758;52.122;5.404;2023-08-24T12:19:36;15.77;;;11.85;;
75413;SDS011;64758;52.122;5.404;2023-08-24T12:22:12;14.77;;;11.57;;
75413;SDS011;64758;52.122;5.404;2023-08-24T12:24:43;15.07;;;12.03;;
75413;SDS011;64758;52.122;5.404;2023-08-24T12:27:17;13.63;;;11.80;;
75413;SDS011;64758;52.122;5.404;2023-08-24T12:29:48;18.98;;;15.23;;
75413;SDS011;64758;52.122;5.404;2023-08-24T12:32:15;25.65;;;20.83;;
75413;SDS011;64758;52.122;5.404;2023-08-24T12:34:46;41.15;;;34.40;;
75413;SDS011;64758;52.122;5.404;2023-08-24T12:37:12;17.23;;;14.87;;
75413;SDS011;64758;52.122;5.404;2023-08-24T12:39:39;16.05;;;14.25;;
75413;SDS011;64758;52.122;5.404;2023-08-24T12:42:06;17.52;;;13.73;;
75413;SDS011;64758;52.122;5.404;2023-08-24T12:44:33;21.48;;;15.80;;
75413;SDS011;64758;52.122;5.404;2023-08-24T12:46:59;19.08;;;14.82;;
75413;SDS011;64758;52.122;5.404;2023-08-24T12:49:26;20.40;;;16.47;;
75413;SDS011;64758;52.122;5.404;2023-08-24T12:51:52;19.05;;;15.15;;
75413;SDS011;64758;52.122;5.404;2023-08-24T12:54:19;16.52;;;13.88;;
75413;SDS011;64758;52.122;5.404;2023-08-24T12:56:45;20.05;;;15.25;;
75413;SDS011;64758;52.122;5.404;2023-08-24T12:59:12;17.00;;;14.30;;
75413;SDS011;64758;52.122;5.404;2023-08-24T13:01:38;18.63;;;14.30;;
75413;SDS011;64758;52.122;5.404;2023-08-24T13:04:05;15.88;;;13.05;;
75413;SDS011;64758;52.122;5.404;2023-08-24T13:06:32;19.13;;;13.65;;
75413;SDS011;64758;52.122;5.404;2023-08-24T13:08:59;24.73;;;16.30;;
75413;SDS011;64758;52.122;5.404;2023-08-24T13:11:26;20.63;;;13.82;;
75413;SDS011;64758;52.122;5.404;2023-08-24T13:13:53;19.13;;;13.63;;
75413;SDS011;64758;52.122;5.404;2023-08-24T13:16:19;20.15;;;13.65;;
75413;SDS011;64758;52.122;5.404;2023-08-24T13:18:46;19.08;;;13.38;;
75413;SDS011;64758;52.122;5.404;2023-08-24T13:21:12;21.80;;;14.90;;
75413;SDS011;64758;52.122;5.404;2023-08-24T13:23:42;14.02;;;12.52;;
75413;SDS011;64758;52.122;5.404;2023-08-24T13:26:16;17.23;;;13.47;;
75413;SDS011;64758;52.122;5.404;2023-08-24T13:28:45;15.18;;;13.10;;
75413;SDS011;64758;52.122;5.404;2023-08-24T13:31:12;17.92;;;12.93;;
75413;SDS011;64758;52.122;5.404;2023-08-24T13:33:39;14.85;;;11.82;;
75413;SDS011;64758;52.122;5.404;2023-08-24T13:36:05;15.18;;;13.40;;
75413;SDS011;64758;52.122;5.404;2023-08-24T13:38:32;15.50;;;13.83;;
75413;SDS011;64758;52.122;5.404;2023-08-24T13:40:58;17.60;;;14.05;;
75413;SDS011;64758;52.122;5.404;2023-08-24T13:43:25;21.17;;;13.77;;
75413;SDS011;64758;52.122;5.404;2023-08-24T13:45:51;15.02;;;12.82;;
75413;SDS011;64758;52.122;5.404;2023-08-24T13:48:18;14.63;;;12.93;;
75413;SDS011;64758;52.122;5.404;2023-08-24T13:50:51;15.80;;;13.50;;
75413;SDS011;64758;52.122;5.404;2023-08-24T13:53:18;16.88;;;13.48;;
75413;SDS011;64758;52.122;5.404;2023-08-24T13:55:45;19.27;;;13.60;;
75413;SDS011;64758;52.122;5.404;2023-08-24T13:58:12;17.70;;;14.05;;
75413;SDS011;64758;52.122;5.404;2023-08-24T14:00:38;15.02;;;12.98;;
75413;SDS011;64758;52.122;5.404;2023-08-24T14:03:05;15.77;;;13.63;;
75413;SDS011;64758;52.122;5.404;2023-08-24T14:05:32;17.45;;;14.32;;
75413;SDS011;64758;52.122;5.404;2023-08-24T14:07:58;18.83;;;14.23;;
75413;SDS011;64758;52.122;5.404;2023-08-24T14:10:25;21.60;;;15.45;;
75413;SDS011;64758;52.122;5.404;2023-08-24T14:12:51;18.75;;;14.38;;
75413;SDS011;64758;52.122;5.404;2023-08-24T14:15:18;17.27;;;15.43;;
75413;SDS011;64758;52.122;5.404;2023-08-24T14:17:45;19.85;;;17.08;;
75413;SDS011;64758;52.122;5.404;2023-08-24T14:20:12;19.90;;;17.63;;
75413;SDS011;64758;52.122;5.404;2023-08-24T14:22:39;19.45;;;16.92;;
75413;SDS011;64758;52.122;5.404;2023-08-24T14:25:05;20.52;;;17.65;;
75413;SDS011;64758;52.122;5.404;2023-08-24T14:27:32;21.07;;;18.63;;
75413;SDS011;64758;52.122;5.404;2023-08-24T14:29:59;22.77;;;18.40;;
75413;SDS011;64758;52.122;5.404;2023-08-24T14:32:25;22.80;;;17.67;;
75413;SDS011;64758;52.122;5.404;2023-08-24T14:34:52;22.90;;;18.65;;
75413;SDS011;64758;52.122;5.404;2023-08-24T14:37:18;24.33;;;18.33;;
75413;SDS011;64758;52.122;5.404;2023-08-24T14:39:45;19.10;;;16.90;;
75413;SDS011;64758;52.122;5.404;2023-08-24T14:42:11;20.80;;;17.20;;
75413;SDS011;64758;52.122;5.404;2023-08-24T14:44:38;20.20;;;17.05;;
75413;SDS011;64758;52.122;5.404;2023-08-24T14:47:05;21.15;;;16.65;;
75413;SDS011;64758;52.122;5.404;2023-08-24T14:49:32;19.08;;;16.33;;
75413;SDS011;64758;52.122;5.404;2023-08-24T14:51:58;18.50;;;14.77;;
75413;SDS011;64758;52.122;5.404;2023-08-24T14:54:25;16.45;;;13.10;;